Blue Grass, VA (24413)

4:10 AM EDT on April 18, 2015 (GMT -0400)
Snowy Mountain Rd. | | Change Station
CLOSE
Current Station
Personal Weather Station
Location: Circleville, WV
Elevation: 2900 ft
Nearby Weather Stations

Elev 2900 ft 38.54 °N, 79.51 °W | Updated 2 minutes ago

Partly Cloudy
Partly Cloudy
47.7 °F
Feels Like 48 °F
N
1.7
Wind Variable Wind from North

Today
High -- | Low -- °F
--% Chance of Precip.
Yesterday
High -- | Low -- °F
Precip. -- in
6:38 AM 7:57 PM
Waning Crescent, 0% visible
Pressure 30.06 in
Visibility 0.2 miles
Clouds
Windchill 48 °F
Dew Point 47 °F
Humidity 96%
Rainfall 0.00 in
Snow Depth Not available.
UV Not available.
Pollen 8.50 out of 12
Air Quality Not available.
Flu Activity Local Activity
METAR KEKN 180751Z AUTO 00000KT 1/4SM FG VV002 10/09 A3005 RMK AO2 SLP179 T01000089 TSNO

More Conditions Fewer Conditions

Pressure 30.06 in
Visibility 0.2 miles
Clouds
Windchill 48 °F
Dew Point 47 °F
Humidity 96%
Rainfall 0.00 in
Snow Depth Not available.
UV Not available.
Pollen 8.50 out of 12
Air Quality Not available.
Flu Activity Local Activity
METAR KEKN 180751Z AUTO 00000KT 1/4SM FG VV002 10/09 A3005 RMK AO2 SLP179 T01000089 TSNO

More Conditions Fewer Conditions

10-Day Weather Forecast

Almanac

Astronomy

Apr. 18, 2015 Rise Set
Actual Time
Civil Twilight
Nautical Twilight
Astronomical Twilight
Moon
Length of Visible Light
Length of Day
Tomorrow will be .
, % of the Moon is Illuminated

Today's Extremes

State Highs State Lows

Community

WunderPhotos

Upload Photos

1,814,345 photos uploaded!

WunderBlogs® & News

Nearby

Air Quality

  Air Quality AQ Index Pollutant
Not available.

Snow Depth

Station Depth Elevation

Earthquake Activity

City Distance Mag. Time & Date
Minimum magnitude displayed is 2.5.

Coastal Water Temperatures

Place Temperature

Stations

Nearby Weather Stations

Station Location Temp. Windchill Dew Point Humidity Wind Precip. Elev Updated Type